No particular awareness of the weather is required.    There are no Weather-warnings


Meteo18 Weather Cam more information Meteo18 Weather Cam


Thunder radar more information blitzortung!


Rain radar more information rain snow radar


Visit our other weather sites:

Template documentation
and downloads

And another site



Weather Underground History page Text

Daily Summary for February 25, 2017 Units:  English    Metric   Both
« Previous Day
Next Day »
Daily Weekly Monthly Yearly Custom
  High: Low: Average:
Temperature: 50.7 °F 28 °F 39.4 °F
Dew Point: 37 °F 26.6 °F 32.2 °F
Humidity: 95 % 50 % 77 %
Wind Speed: 8 mph 0 mph 0.9 mph
Wind Gust: 9 mph - -
Wind:- - SSW
Pressure: 30.3 in 30.1 in -
Precipitation: 0 in    
Historical Graphs
 
 
Tabular Data for February 25, 2017
Time Temperature Dew Point Pressure Wind Wind Speed Wind Gust Humidity Rainfall Rate (Hourly)
00:02 36.5 °F 31.8 °F 30.2 in Calm   1 mph 83 % 0 in
00:12 36.5 °F 31.5 °F 30.2 in Calm   1 mph 82 % 0 in
00:17 35.8 °F 31.1 °F 30.2 in WNW 1 mph 1 mph 83 % 0 in
00:22 35.2 °F 30.9 °F 30.2 in Calm   1 mph 84 % 0 in
00:27 34.9 °F 30.9 °F 30.2 in East 1 mph 1 mph 85 % 0 in
00:32 34.7 °F 31.3 °F 30.2 in Calm   2 mph 87 % 0 in
00:42 35.1 °F 30.9 °F 30.2 in Calm   2 mph 85 % 0 in
00:47 34.7 °F 30.7 °F 30.2 in Calm   2 mph 85 % 0 in
00:57 34.3 °F 30.9 °F 30.2 in Calm   1 mph 87 % 0 in
01:02 34.9 °F 31.1 °F 30.2 in Calm   1 mph 86 % 0 in
01:07 34.5 °F 30.7 °F 30.2 in Calm   1 mph 86 % 0 in
01:12 34.2 °F 30.2 °F 30.2 in WNW 1 mph 1 mph 85 % 0 in
01:17 33.4 °F 30 °F 30.2 in West 1 mph 1 mph 87 % 0 in
01:22 33.3 °F 30 °F 30.2 in WNW 1 mph 1 mph 88 % 0 in
01:27 33.1 °F 29.8 °F 30.2 in WNW 1 mph 1 mph 88 % 0 in
01:32 33.1 °F 30.2 °F 30.2 in WNW 1 mph 1 mph 89 % 0 in
01:37 32.7 °F 29.8 °F 30.2 in Calm   1 mph 89 % 0 in
01:42 33.3 °F 30.4 °F 30.2 in Calm   1 mph 89 % 0 in
01:47 33.4 °F 30.2 °F 30.2 in Calm   1 mph 88 % 0 in
01:52 33.4 °F 30.2 °F 30.2 in Calm   1 mph 88 % 0 in
01:57 33.8 °F 30.6 °F 30.2 in Calm     88 % 0 in
02:02 34 °F 30.6 °F 30.2 in Calm     87 % 0 in
02:12 33.4 °F 30 °F 30.2 in Calm     87 % 0 in
02:17 33.3 °F 30 °F 30.2 in Calm     88 % 0 in
02:22 33.3 °F 29.8 °F 30.2 in Calm     87 % 0 in
02:32 32.4 °F 29.5 °F 30.2 in Calm     89 % 0 in
02:42 32.2 °F 29.7 °F 30.2 in Calm     90 % 0 in
02:47 32.2 °F 29.7 °F 30.2 in Calm     90 % 0 in
02:52 32.2 °F 29.7 °F 30.2 in Calm     90 % 0 in
02:57 32 °F 29.5 °F 30.2 in Calm     90 % 0 in
03:02 31.6 °F 29.1 °F 30.2 in Calm     90 % 0 in
03:07 31.1 °F 28.6 °F 30.2 in Calm     90 % 0 in
03:12 30.7 °F 28.4 °F 30.2 in Calm     91 % 0 in
03:17 30.6 °F 28.2 °F 30.2 in Calm     91 % 0 in
03:22 30.9 °F 29.1 °F 30.2 in Calm     93 % 0 in
03:32 30.9 °F 28.6 °F 30.2 in Calm     91 % 0 in
03:42 30.6 °F 28.6 °F 30.2 in Calm     92 % 0 in
03:47 30.6 °F 28.6 °F 30.2 in Calm     92 % 0 in
03:52 30.6 °F 28.6 °F 30.2 in Calm     92 % 0 in
04:02 30.6 °F 28.8 °F 30.2 in Calm     93 % 0 in
04:07 30.7 °F 28.8 °F 30.2 in Calm     92 % 0 in
04:12 30.7 °F 28.8 °F 30.2 in Calm     92 % 0 in
04:17 30.7 °F 28.8 °F 30.2 in Calm     92 % 0 in
04:22 30.7 °F 28.8 °F 30.2 in Calm     92 % 0 in
04:32 30.4 °F 28.4 °F 30.2 in Calm     92 % 0 in
04:37 30 °F 28 °F 30.2 in Calm     92 % 0 in
04:42 29.8 °F 28 °F 30.2 in Calm     93 % 0 in
04:47 29.8 °F 28 °F 30.2 in Calm     93 % 0 in
04:52 29.8 °F 28 °F 30.2 in Calm     93 % 0 in
04:57 29.7 °F 27.7 °F 30.2 in Calm     92 % 0 in
05:02 29.5 °F 27.7 °F 30.2 in Calm     93 % 0 in
05:12 29.5 °F 28 °F 30.2 in Calm     94 % 0 in
05:17 29.7 °F 28.2 °F 30.2 in Calm     94 % 0 in
05:22 29.8 °F 28.4 °F 30.2 in Calm     94 % 0 in
05:32 29.3 °F 27.5 °F 30.2 in Calm     93 % 0 in
05:37 28.9 °F 27.1 °F 30.2 in Calm     93 % 0 in
05:42 29.1 °F 27.7 °F 30.2 in Calm     94 % 0 in
05:47 29.1 °F 27.7 °F 30.2 in Calm     94 % 0 in
05:52 29.3 °F 27.9 °F 30.2 in Calm     94 % 0 in
06:02 29.1 °F 27.7 °F 30.2 in Calm     94 % 0 in
06:12 28.9 °F 27.5 °F 30.2 in Calm     94 % 0 in
06:17 29.1 °F 27.9 °F 30.2 in Calm     95 % 0 in
06:22 29.5 °F 28.2 °F 30.2 in Calm     95 % 0 in
06:32 29.5 °F 28 °F 30.2 in Calm     94 % 0 in
06:42 29.3 °F 27.9 °F 30.2 in Calm     94 % 0 in
06:47 29.1 °F 27.3 °F 30.2 in Calm     93 % 0 in
06:52 29.1 °F 27.3 °F 30.2 in Calm     93 % 0 in
07:02 28.6 °F 26.8 °F 30.2 in Calm     93 % 0 in
07:12 28.2 °F 26.8 °F 30.2 in Calm     94 % 0 in
07:17 28.2 °F 26.8 °F 30.2 in Calm     94 % 0 in
07:22 28 °F 26.6 °F 30.2 in Calm     94 % 0 in
07:32 28 °F 26.8 °F 30.2 in Calm     95 % 0 in
07:37 28 °F 26.6 °F 30.2 in Calm     94 % 0 in
07:42 28 °F 26.6 °F 30.2 in Calm     94 % 0 in
07:47 28.2 °F 27 °F 30.2 in Calm     95 % 0 in
07:52 28.2 °F 27 °F 30.2 in Calm     95 % 0 in
07:57 28 °F 26.6 °F 30.2 in Calm     94 % 0 in
08:02 28 °F 26.8 °F 30.2 in Calm     95 % 0 in
08:12 28.2 °F 27 °F 30.2 in Calm     95 % 0 in
08:17 28.4 °F 27.1 °F 30.2 in Calm     95 % 0 in
08:22 29.1 °F 27.9 °F 30.2 in Calm     95 % 0 in
08:32 30.4 °F 29.1 °F 30.2 in Calm     95 % 0 in
08:37 30.7 °F 29.5 °F 30.2 in Calm     95 % 0 in
08:42 30.9 °F 29.1 °F 30.2 in Calm     93 % 0 in
08:47 31.1 °F 29.3 °F 30.2 in Calm     93 % 0 in
08:52 31.5 °F 29.7 °F 30.2 in Calm     93 % 0 in
09:02 32 °F 30.2 °F 30.2 in Calm     93 % 0 in
09:12 34.5 °F 32.4 °F 30.2 in Calm     92 % 0 in
09:17 36 °F 34.2 °F 30.2 in Calm     93 % 0 in
09:22 36.1 °F 32.9 °F 30.2 in Calm     88 % 0 in
09:32 37.6 °F 33.4 °F 30.2 in Calm     85 % 0 in
09:37 37.6 °F 32.9 °F 30.2 in Calm     83 % 0 in
09:42 38.3 °F 34 °F 30.2 in Calm     84 % 0 in
09:47 39.7 °F 35.2 °F 30.3 in Calm     84 % 0 in
09:52 40.3 °F 34.5 °F 30.3 in Calm     80 % 0 in
09:57 40.8 °F 34.5 °F 30.3 in Calm     78 % 0 in
10:02 39.6 °F 33.3 °F 30.3 in Calm     78 % 0 in
10:07 39.4 °F 34.3 °F 30.3 in Calm     82 % 0 in
10:12 39.6 °F 34.2 °F 30.3 in Calm     81 % 0 in
10:17 39.6 °F 34 °F 30.3 in Calm     80 % 0 in
10:22 38.8 °F 33.4 °F 30.3 in Calm     81 % 0 in
10:32 39 °F 34.3 °F 30.3 in SSW 1 mph 2 mph 83 % 0 in
10:37 39.6 °F 35.1 °F 30.3 in SSW 1 mph 2 mph 84 % 0 in
10:42 39.6 °F 34.9 °F 30.3 in Calm   3 mph 83 % 0 in
10:47 39.9 °F 35.2 °F 30.3 in SSE 2 mph 3 mph 83 % 0 in
10:52 40.1 °F 35.4 °F 30.3 in Calm   4 mph 83 % 0 in
10:57 40.5 °F 35.8 °F 30.3 in SSW 3 mph 4 mph 83 % 0 in
11:02 40.6 °F 36 °F 30.3 in South 2 mph 4 mph 83 % 0 in
11:07 41.2 °F 36.5 °F 30.3 in SE 2 mph 4 mph 83 % 0 in
11:12 41.5 °F 37 °F 30.3 in South 3 mph 4 mph 84 % 0 in
11:17 41.7 °F 36.3 °F 30.3 in SW 3 mph 4 mph 81 % 0 in
11:22 41.9 °F 36.9 °F 30.3 in Calm   6 mph 82 % 0 in
11:27 42.4 °F 37 °F 30.3 in SSW 2 mph 6 mph 81 % 0 in
11:32 42.6 °F 36.9 °F 30.3 in SSW 4 mph 6 mph 80 % 0 in
11:42 43.2 °F 36.7 °F 30.3 in SSW 5 mph 6 mph 78 % 0 in
11:47 43.2 °F 36.5 °F 30.3 in SSW 6 mph 6 mph 77 % 0 in
11:52 43.3 °F 36.3 °F 30.3 in South 2 mph 7 mph 76 % 0 in
11:57 43.5 °F 36.5 °F 30.3 in SW 4 mph 7 mph 76 % 0 in
12:02 43.9 °F 36.9 °F 30.3 in SW 4 mph 7 mph 76 % 0 in
12:12 44.2 °F 36.5 °F 30.3 in SW 4 mph 6 mph 74 % 0 in
12:17 44.4 °F 36.7 °F 30.3 in WSW 3 mph 6 mph 74 % 0 in
12:22 44.8 °F 36.7 °F 30.3 in WSW 4 mph 7 mph 73 % 0 in
12:27 45 °F 36.9 °F 30.3 in SSW 3 mph 7 mph 73 % 0 in
12:32 45.3 °F 36.1 °F 30.3 in SSW 5 mph 7 mph 70 % 0 in
12:42 45.9 °F 36.7 °F 30.2 in South 4 mph 7 mph 70 % 0 in
12:47 46 °F 36.5 °F 30.2 in SW 2 mph 7 mph 69 % 0 in
12:57 46.4 °F 36 °F 30.2 in Calm   6 mph 67 % 0 in
13:02 46.8 °F 35.6 °F 30.2 in Calm   6 mph 65 % 0 in
13:12 46.8 °F 35.6 °F 30.2 in SSE 3 mph 6 mph 65 % 0 in
13:17 47.1 °F 36 °F 30.2 in SSW 5 mph 6 mph 65 % 0 in
13:22 47.5 °F 36 °F 30.2 in SSW 2 mph 6 mph 64 % 0 in
13:32 47.8 °F 36.7 °F 30.2 in WSW 5 mph 6 mph 65 % 0 in
13:37 47.5 °F 35.1 °F 30.2 in SSE 2 mph 7 mph 62 % 0 in
13:42 47.7 °F 35.2 °F 30.2 in SSW 2 mph 7 mph 62 % 0 in
13:47 48 °F 34.3 °F 30.2 in SSW 5 mph 7 mph 59 % 0 in
13:52 48 °F 34.9 °F 30.2 in South 2 mph 7 mph 60 % 0 in
13:57 48.2 °F 33.3 °F 30.2 in SSW 2 mph 6 mph 56 % 0 in
14:02 48.4 °F 33.8 °F 30.2 in SSE 4 mph 6 mph 57 % 0 in
14:12 48.4 °F 34.7 °F 30.2 in SSW 1 mph 7 mph 59 % 0 in
14:17 48.4 °F 34.7 °F 30.2 in SW 4 mph 7 mph 59 % 0 in
14:22 48.6 °F 35.8 °F 30.2 in Calm   7 mph 61 % 0 in
14:27 48.7 °F 34.7 °F 30.2 in SW 4 mph 5 mph 58 % 0 in
14:32 48.7 °F 35.4 °F 30.2 in SSW 1 mph 5 mph 60 % 0 in
14:37 49.5 °F 35.2 °F 30.2 in ESE 2 mph 5 mph 58 % 0 in
14:42 48.9 °F 34.3 °F 30.2 in SE 1 mph 5 mph 57 % 0 in
14:52 49.3 °F 33.8 °F 30.2 in SW 4 mph 5 mph 55 % 0 in
14:57 48.9 °F 34 °F 30.2 in West 1 mph 6 mph 56 % 0 in
15:02 49.3 °F 33.8 °F 30.2 in SSE 4 mph 6 mph 55 % 0 in
15:07 49.5 °F 35.2 °F 30.2 in South 3 mph 8 mph 58 % 0 in
15:12 49.5 °F 34 °F 30.2 in SW 4 mph 8 mph 55 % 0 in
15:17 49.5 °F 34 °F 30.2 in South 3 mph 8 mph 55 % 0 in
15:22 49.5 °F 33.4 °F 30.2 in SW 4 mph 8 mph 54 % 0 in
15:27 49.5 °F 34 °F 30.2 in SW 4 mph 7 mph 55 % 0 in
15:32 49.3 °F 32.9 °F 30.2 in South 1 mph 7 mph 53 % 0 in
15:37 49.6 °F 34.5 °F 30.2 in SW 4 mph 7 mph 56 % 0 in
15:42 49.5 °F 33.1 °F 30.2 in SSW 1 mph 7 mph 53 % 0 in
15:52 49.8 °F 32.9 °F 30.2 in SSW 1 mph 7 mph 52 % 0 in
15:57 50.2 °F 33.3 °F 30.2 in SW 4 mph 4 mph 52 % 0 in
16:02 50.2 °F 33.3 °F 30.2 in SSW 2 mph 4 mph 52 % 0 in
16:12 50.4 °F 32.9 °F 30.2 in SW 2 mph 4 mph 51 % 0 in
16:17 50.5 °F 32.5 °F 30.2 in SSW 4 mph 7 mph 50 % 0 in
16:22 50.5 °F 33.1 °F 30.2 in South 3 mph 7 mph 51 % 0 in
16:32 50.7 °F 32.7 °F 30.1 in SW 8 mph 8 mph 50 % 0 in
16:37 50.5 °F 33.1 °F 30.1 in SSW 4 mph 9 mph 51 % 0 in
16:42 50.5 °F 35.1 °F 30.1 in SW 5 mph 9 mph 55 % 0 in
16:47 50.4 °F 32.4 °F 30.1 in SW 3 mph 9 mph 50 % 0 in
16:52 50.5 °F 33.6 °F 30.1 in SSE 4 mph 9 mph 52 % 0 in
16:57 50.5 °F 33.6 °F 30.1 in SW 5 mph 7 mph 52 % 0 in
17:02 50.4 °F 33.8 °F 30.1 in SSW 3 mph 7 mph 53 % 0 in
17:12 50.4 °F 34.9 °F 30.1 in SSW 4 mph 6 mph 55 % 0 in
17:17 50.4 °F 35.8 °F 30.1 in South 1 mph 6 mph 57 % 0 in
17:22 50.4 °F 35.8 °F 30.1 in SSW 2 mph 6 mph 57 % 0 in
17:32 49.8 °F 35.2 °F 30.1 in South 3 mph 5 mph 57 % 0 in
17:42 49.8 °F 36.1 °F 30.1 in South 2 mph 5 mph 59 % 0 in
17:47 49.6 °F 35.4 °F 30.1 in SSE 2 mph 4 mph 58 % 0 in
17:52 49.3 °F 34.7 °F 30.1 in South 1 mph 4 mph 57 % 0 in
18:02 48.4 °F 34.7 °F 30.1 in SSE 1 mph 4 mph 59 % 0 in
18:12 47.7 °F 34.9 °F 30.1 in SSW 1 mph 4 mph 61 % 0 in
18:17 47.1 °F 35.6 °F 30.1 in SSW 1 mph 3 mph 64 % 0 in
18:22 46.6 °F 35.8 °F 30.1 in SW 1 mph 3 mph 66 % 0 in
18:32 46.2 °F 35.1 °F 30.1 in SW 1 mph 2 mph 65 % 0 in
18:37 46.2 °F 34.3 °F 30.1 in SW 2 mph 2 mph 63 % 0 in
18:42 46.6 °F 34.3 °F 30.1 in WSW 1 mph 3 mph 62 % 0 in
18:52 46.2 °F 34.3 °F 30.1 in SW 1 mph 3 mph 63 % 0 in
18:57 46 °F 34.2 °F 30.1 in Calm   2 mph 63 % 0 in
19:02 45.9 °F 34 °F 30.1 in Calm   2 mph 63 % 0 in
19:12 45.7 °F 33.8 °F 30.1 in Calm   2 mph 63 % 0 in
19:17 45.3 °F 33.8 °F 30.1 in Calm   1 mph 64 % 0 in
19:22 45.1 °F 33.6 °F 30.1 in Calm   1 mph 64 % 0 in
19:32 44.4 °F 34.2 °F 30.1 in Calm   1 mph 67 % 0 in
19:37 43.9 °F 34 °F 30.1 in Calm     68 % 0 in
19:42 43.5 °F 34.3 °F 30.1 in Calm     70 % 0 in
19:47 43.2 °F 34.3 °F 30.1 in Calm     71 % 0 in
19:52 43 °F 34.5 °F 30.1 in Calm     72 % 0 in
19:57 42.6 °F 34.5 °F 30.1 in Calm     73 % 0 in
20:02 42.4 °F 34.7 °F 30.1 in Calm     74 % 0 in
20:07 42.4 °F 34.3 °F 30.1 in Calm     73 % 0 in
20:12 42.6 °F 34.2 °F 30.1 in Calm     72 % 0 in
20:17 42.4 °F 34.3 °F 30.1 in Calm     73 % 0 in
20:22 42.3 °F 33.8 °F 30.1 in Calm     72 % 0 in
20:27 42.1 °F 33.8 °F 30.1 in Calm     72 % 0 in
20:32 42.1 °F 34 °F 30.1 in Calm     73 % 0 in
20:37 41.4 °F 33.4 °F 30.1 in Calm     73 % 0 in
20:42 41.2 °F 33.3 °F 30.1 in Calm     73 % 0 in
20:47 41.5 °F 33.3 °F 30.1 in Calm     72 % 0 in
20:52 41.7 °F 33.4 °F 30.1 in Calm     72 % 0 in
20:57 41.7 °F 33.4 °F 30.1 in Calm     72 % 0 in
21:02 41.5 °F 33.8 °F 30.1 in Calm     74 % 0 in
21:12 40.5 °F 33.1 °F 30.1 in Calm     75 % 0 in
21:17 39.9 °F 33.3 °F 30.1 in Calm     77 % 0 in
21:27 40.1 °F 33.1 °F 30.1 in Calm     76 % 0 in
21:32 40.3 °F 33.1 °F 30.1 in Calm     75 % 0 in
21:37 40.3 °F 33.1 °F 30.1 in Calm     75 % 0 in
21:42 40.6 °F 33.1 °F 30.1 in Calm     74 % 0 in
21:47 40.6 °F 33.1 °F 30.1 in Calm     74 % 0 in
21:52 40.6 °F 33.1 °F 30.1 in Calm     74 % 0 in
21:57 40.6 °F 32.7 °F 30.1 in Calm     73 % 0 in
22:02 40.6 °F 32.4 °F 30.1 in Calm     72 % 0 in
22:07 40.3 °F 32.4 °F 30.1 in Calm     73 % 0 in
22:12 40.3 °F 32.7 °F 30.1 in Calm     74 % 0 in
22:17 40.5 °F 32.5 °F 30.1 in Calm   1 mph 73 % 0 in
22:22 39.9 °F 32.4 °F 30.1 in Calm   1 mph 74 % 0 in
22:32 39 °F 31.8 °F 30.1 in Calm   1 mph 75 % 0 in
22:42 39.6 °F 32 °F 30.1 in Calm   1 mph 74 % 0 in
22:47 39.4 °F 31.8 °F 30.1 in Calm   1 mph 74 % 0 in
22:52 39.2 °F 32 °F 30.1 in Calm   1 mph 75 % 0 in
23:02 39 °F 32.2 °F 30.1 in Calm   1 mph 76 % 0 in
23:07 39.6 °F 32 °F 30.1 in Calm   1 mph 74 % 0 in
23:12 39.7 °F 31.8 °F 30.1 in Calm   1 mph 73 % 0 in
23:17 39.2 °F 31.6 °F 30.1 in Calm   1 mph 74 % 0 in
23:22 39 °F 31.8 °F 30.1 in SW 1 mph 1 mph 75 % 0 in
23:27 39.6 °F 32 °F 30.1 in SSW 1 mph 1 mph 74 % 0 in
23:32 39.6 °F 31.6 °F 30.1 in Calm   1 mph 73 % 0 in
23:42 39.4 °F 31.8 °F 30.1 in Calm   1 mph 74 % 0 in
23:47 39.2 °F 31.6 °F 30.1 in Calm     74 % 0 in
23:52 39 °F 31.8 °F 30.1 in Calm     75 % 0 in
23:57 38.8 °F 31.6 °F 30.1 in Calm     75 % 0 in
Meteo18
Compliments of Weather Underground - 4 mb

Script developed by  Jim McMurry - jmcmurry@mwt.net Adapted for the template by  Wim van der Kuil - Leuven-Template.eu

You find our weather info also at:

European Weather Network

Weather Underground

Equipment we use:

Weather-station
Davis Vue

Weather-program
Meteohub

Weather-server
Raspberry PI 2 B+

Provider
1 and 1

Davis Vue

Meteohub

Raspberry PI 2 B+

1 and 1